createdAt,value
2022-10-17T00:03:15.445Z,100.21
2022-10-17T00:08:39.490Z,99.50
2022-10-17T00:18:31.817Z,100.51
2022-10-17T00:23:31.766Z,100.33
2022-10-17T00:28:31.713Z,100.21
2022-10-17T00:33:31.629Z,101.72
2022-10-17T00:38:31.550Z,102.46
2022-10-17T00:43:31.478Z,101.60
2022-10-17T00:48:31.428Z,103.27
2022-10-17T00:53:32.162Z,103.02
2022-10-17T00:58:31.278Z,102.40
2022-10-17T01:03:31.226Z,103.91
2022-10-17T01:08:31.142Z,102.71
2022-10-17T01:13:31.074Z,103.97
2022-10-17T01:18:31.014Z,104.62
2022-10-17T01:23:30.947Z,104.10
2022-10-17T01:28:30.964Z,105.21
2022-10-17T01:33:30.818Z,105.80
2022-10-17T01:38:30.733Z,104.94
2022-10-17T01:43:30.663Z,106.33
2022-10-17T01:48:30.600Z,105.80
2022-10-17T01:53:30.541Z,105.80
2022-10-17T01:58:30.834Z,106.40
2022-10-17T02:03:30.406Z,106.74
2022-10-17T02:08:30.326Z,107.07
2022-10-17T02:13:30.270Z,107.14
2022-10-17T02:18:30.194Z,107.21
2022-10-17T02:23:30.138Z,107.69
2022-10-17T02:28:30.142Z,107.76
2022-10-17T02:33:29.991Z,107.62
2022-10-17T02:38:29.921Z,107.96
2022-10-17T02:43:29.865Z,108.38
2022-10-17T02:48:30.208Z,107.96
2022-10-17T02:53:29.727Z,108.10
2022-10-17T02:58:29.676Z,107.90
2022-10-17T03:03:29.594Z,108.59
2022-10-17T03:08:29.599Z,108.73
2022-10-17T03:13:29.470Z,108.87
2022-10-17T03:18:29.398Z,109.01
2022-10-17T03:23:29.327Z,109.36
2022-10-17T03:28:29.280Z,109.58
2022-10-17T03:33:29.192Z,110.08
2022-10-17T03:38:29.121Z,109.93
2022-10-17T03:43:29.033Z,110.73
2022-10-17T03:48:29.005Z,110.37
2022-10-17T03:53:28.965Z,110.15
2022-10-17T03:58:28.828Z,110.80
2022-10-17T04:03:28.838Z,110.29
2022-10-17T04:08:28.738Z,111.09
2022-10-17T04:13:28.659Z,111.24
2022-10-17T04:18:38.248Z,111.24
2022-10-17T04:23:30.672Z,111.46
2022-10-17T04:28:30.664Z,111.90
2022-10-17T04:33:30.512Z,111.98
2022-10-17T04:38:30.455Z,112.28
2022-10-17T04:43:30.378Z,112.05
2022-10-17T04:48:30.318Z,113.03
2022-10-17T04:53:30.244Z,112.80
2022-10-17T04:58:30.178Z,113.25
2022-10-17T05:03:30.113Z,112.72
2022-10-17T05:08:30.048Z,113.79
2022-10-17T05:13:29.976Z,114.10
2022-10-17T05:18:30.284Z,113.64
2022-10-17T05:23:29.839Z,114.56
2022-10-17T05:28:29.809Z,115.27
2022-10-17T05:33:29.687Z,114.17
2022-10-17T05:38:29.649Z,115.27
2022-10-17T05:43:29.569Z,114.25
2022-10-17T05:48:29.547Z,115.27
2022-10-17T05:53:29.425Z,115.19
2022-10-17T06:03:30.321Z,115.19
2022-10-17T06:08:29.223Z,114.79
2022-10-17T06:13:29.158Z,115.42
2022-10-17T06:18:29.102Z,115.03
2022-10-17T06:23:29.012Z,115.03
2022-10-17T06:28:29.073Z,114.79
2022-10-17T06:33:28.909Z,113.56
2022-10-17T06:38:28.797Z,113.79
2022-10-17T06:43:28.792Z,114.48
2022-10-17T06:48:28.673Z,113.48
2022-10-17T06:53:28.626Z,112.72
2022-10-17T06:58:28.605Z,111.09
2022-10-17T07:03:28.465Z,108.73
2022-10-17T07:08:28.409Z,106.87
2022-10-17T07:13:28.358Z,104.42
2022-10-17T07:18:28.276Z,100.51
2022-10-17T07:23:28.251Z,96.76
2022-10-17T07:28:28.202Z,94.46
2022-10-17T07:33:28.107Z,89.65
2022-10-17T07:38:28.025Z,85.21
2022-10-17T07:43:27.949Z,82.38
2022-10-17T07:48:27.990Z,79.73
2022-10-17T07:53:27.823Z,77.25
2022-10-17T07:58:27.727Z,75.66
2022-10-17T08:03:27.701Z,73.23
2022-10-17T08:14:18.014Z,94.54
2022-10-17T08:19:17.875Z,86.43
2022-10-17T08:24:17.823Z,79.81
2022-10-17T08:29:17.758Z,74.72
2022-10-17T08:34:17.685Z,71.31
2022-10-17T08:39:17.629Z,67.87
2022-10-17T08:44:17.530Z,64.55
2022-10-17T08:49:17.796Z,61.76
2022-10-17T08:54:17.415Z,59.83
2022-10-17T08:59:17.360Z,58.79
2022-10-17T09:04:17.429Z,58.46
2022-10-17T09:09:17.253Z,57.94
2022-10-17T09:14:17.129Z,57.19
2022-10-17T09:19:17.074Z,56.96
2022-10-17T09:24:17.018Z,57.31
2022-10-17T09:29:16.939Z,58.34
2022-10-17T09:34:16.876Z,58.54
2022-10-17T09:39:16.809Z,56.54
2022-10-17T09:44:16.739Z,55.83
2022-10-17T09:49:17.411Z,56.02
2022-10-17T09:54:16.726Z,56.32
2022-10-17T09:59:16.576Z,55.39
2022-10-17T10:04:16.477Z,53.50
2022-10-17T10:09:16.411Z,51.04
2022-10-17T10:14:16.333Z,48.24
2022-10-17T10:19:16.291Z,47.08
2022-10-17T10:24:16.206Z,46.97
2022-10-17T10:29:16.148Z,47.74
2022-10-17T10:34:16.074Z,47.66
2022-10-17T10:39:16.014Z,47.16
2022-10-17T10:44:15.991Z,46.56
2022-10-17T10:49:15.878Z,46.66
2022-10-17T10:54:15.825Z,46.20
2022-10-17T10:59:15.792Z,45.12
2022-10-17T11:04:15.668Z,44.36
2022-10-17T11:09:15.638Z,43.85
2022-10-17T11:14:15.541Z,43.62
2022-10-17T11:19:15.488Z,44.13
2022-10-17T11:24:15.409Z,44.64
2022-10-17T11:29:15.353Z,46.41
2022-10-17T11:34:15.283Z,48.18
2022-10-17T11:39:15.236Z,49.63
2022-10-17T11:44:15.146Z,50.67
2022-10-17T11:49:20.153Z,53.13
2022-10-17T11:54:16.021Z,54.71
2022-10-17T11:59:14.957Z,55.39
2022-10-17T12:04:14.915Z,55.72
2022-10-17T12:09:14.818Z,55.47
2022-10-17T12:14:14.749Z,55.25
2022-10-17T12:19:14.690Z,55.50
2022-10-17T12:24:18.810Z,55.72
2022-10-17T12:29:14.544Z,55.87
2022-10-17T12:34:14.476Z,56.02
2022-10-17T12:39:14.687Z,55.98
2022-10-17T12:44:14.693Z,56.73
2022-10-17T12:49:14.286Z,57.16
2022-10-17T12:54:14.230Z,58.46
2022-10-17T12:59:14.146Z,58.46
2022-10-17T13:04:14.080Z,59.45
2022-10-17T13:09:14.024Z,60.17
2022-10-17T13:14:14.681Z,60.52
2022-10-17T13:19:13.883Z,61.26
2022-10-17T13:24:13.812Z,61.80
2022-10-17T13:29:13.839Z,61.85
2022-10-17T13:34:13.685Z,62.44
2022-10-17T13:39:16.886Z,62.77
2022-10-17T13:44:13.562Z,63.43
2022-10-17T13:49:13.487Z,63.91
2022-10-17T13:54:13.403Z,64.30
2022-10-17T13:59:13.461Z,65.35
2022-10-17T14:04:19.763Z,66.01
2022-10-17T14:09:14.216Z,66.58
2022-10-17T14:14:13.118Z,67.11
2022-10-17T14:19:13.119Z,67.81
2022-10-17T14:24:13.020Z,67.71
2022-10-17T14:29:12.941Z,67.92
2022-10-17T14:34:12.884Z,68.59
2022-10-17T14:39:14.492Z,68.31
2022-10-17T14:44:12.732Z,67.76
2022-10-17T14:49:12.692Z,68.14
2022-10-17T14:54:12.612Z,68.14
2022-10-17T14:59:21.431Z,67.92
2022-10-17T15:04:13.615Z,68.14
2022-10-17T15:09:12.395Z,68.53
2022-10-17T15:14:12.334Z,69.26
2022-10-17T15:19:12.257Z,69.43
2022-10-17T15:24:12.289Z,69.89
2022-10-17T15:29:12.143Z,70.48
2022-10-17T15:34:12.060Z,71.13
2022-10-17T15:39:12.060Z,71.61
2022-10-17T15:44:12.130Z,72.23
2022-10-17T15:49:11.911Z,71.80
2022-10-17T15:59:11.753Z,72.79
2022-10-17T16:04:11.647Z,73.36
2022-10-17T16:09:11.581Z,73.68
2022-10-17T16:14:11.525Z,74.19
2022-10-17T16:19:11.475Z,74.92
2022-10-17T16:24:11.402Z,75.39
2022-10-17T16:29:11.383Z,75.19
2022-10-17T16:34:11.257Z,76.00
2022-10-17T16:39:11.202Z,76.55
2022-10-17T16:44:11.121Z,77.04
2022-10-17T16:49:11.045Z,77.54
2022-10-17T16:54:11.019Z,77.97
2022-10-17T16:59:10.899Z,78.47
2022-10-17T17:04:10.850Z,78.99
2022-10-17T17:09:10.805Z,79.51
2022-10-17T17:14:10.740Z,80.19
2022-10-17T17:19:10.659Z,80.34
2022-10-17T17:24:10.605Z,80.96
2022-10-17T17:29:10.560Z,81.11
2022-10-17T17:34:12.104Z,81.43
2022-10-17T17:39:11.425Z,82.06
2022-10-17T17:44:12.577Z,82.30
2022-10-17T17:49:11.280Z,82.30
2022-10-17T17:54:10.190Z,82.70
2022-10-17T17:59:10.112Z,82.87
2022-10-17T18:04:10.060Z,83.03
2022-10-17T18:09:10.004Z,83.19
2022-10-17T18:14:09.973Z,83.36
2022-10-17T18:19:09.945Z,83.19
2022-10-17T18:24:09.818Z,83.86
2022-10-17T18:29:09.733Z,84.27
2022-10-17T18:34:09.698Z,84.36
2022-10-17T18:39:09.573Z,84.53
2022-10-17T18:44:09.526Z,84.53
2022-10-17T18:49:09.473Z,84.87
2022-10-17T18:54:09.390Z,84.95
2022-10-17T18:59:09.341Z,85.64
2022-10-17T19:04:09.202Z,85.38
2022-10-17T19:09:09.157Z,85.73
2022-10-17T19:14:09.099Z,85.99
2022-10-17T19:19:09.012Z,85.73
2022-10-17T19:24:08.971Z,86.17
2022-10-17T19:29:08.991Z,86.17
2022-10-17T19:34:08.835Z,86.61
2022-10-17T19:39:08.754Z,86.79
2022-10-17T19:44:08.700Z,87.33
2022-10-17T19:49:08.610Z,87.33
2022-10-17T19:54:08.579Z,87.78
2022-10-17T19:59:08.503Z,88.15
2022-10-17T20:04:08.462Z,87.87
2022-10-17T20:09:11.009Z,88.42
2022-10-17T20:14:09.308Z,88.70
2022-10-17T20:19:08.249Z,88.42
2022-10-17T20:24:08.158Z,88.70
2022-10-17T20:29:08.099Z,88.80
2022-10-17T20:34:08.031Z,89.46
2022-10-17T20:39:07.971Z,89.46
2022-10-17T20:44:07.885Z,89.84
2022-10-17T20:49:07.802Z,90.03
2022-10-17T20:54:07.751Z,90.32
2022-10-17T20:59:07.682Z,90.22
2022-10-17T21:04:33.215Z,90.71
2022-10-17T21:09:08.570Z,90.80
2022-10-17T21:14:07.573Z,91.29
2022-10-17T21:19:07.432Z,91.39
2022-10-17T21:24:07.334Z,91.49
2022-10-17T21:29:07.290Z,92.09
2022-10-17T21:34:07.211Z,91.20
2022-10-17T21:44:07.090Z,91.49
2022-10-17T21:49:07.025Z,91.20
2022-10-17T21:54:06.897Z,91.49
2022-10-17T21:59:06.880Z,91.79
2022-10-17T22:04:06.876Z,91.79
2022-10-17T22:09:06.823Z,91.89
2022-10-17T22:14:06.667Z,92.19
2022-10-17T22:19:06.931Z,92.60
2022-10-17T22:24:06.563Z,92.60
2022-10-17T22:29:06.478Z,92.39
2022-10-17T22:34:06.387Z,92.70
2022-10-17T22:39:06.309Z,93.21
2022-10-17T22:44:06.298Z,93.21
2022-10-17T22:49:06.165Z,93.11
2022-10-17T22:54:06.128Z,92.70
2022-10-17T22:59:06.022Z,93.11
2022-10-17T23:04:05.985Z,93.21
2022-10-17T23:09:05.935Z,93.21
2022-10-17T23:14:05.841Z,93.31
2022-10-17T23:19:05.796Z,93.11
2022-10-17T23:24:05.697Z,93.31
2022-10-17T23:29:05.719Z,93.42
2022-10-17T23:34:05.565Z,93.11
2022-10-17T23:39:05.595Z,93.42
2022-10-17T23:44:05.431Z,93.21
2022-10-17T23:49:06.064Z,93.73
2022-10-17T23:54:05.287Z,93.52
2022-10-17T23:59:05.249Z,93.62
